Time;durP1;ratioP1;P1;durP2;ratioP2;P2;SDS_P1;SDS_P2;PMS_P1;PMS_P2;Temp;Humidity;BMP_temperature;BMP_pressure;BME280_temperature;BME280_humidity;BME280_pressure;Samples;Min_cycle;Max_cycle;Signal;HPM_P1;HPM_P2
2022/09/21 00:01:16;;;;;;;;;1.00;1.00;;;;;;;;5098033;27;45405;-75
2022/09/21 00:03:42;;;;;;;;;1.00;1.00;;;;;;;;5097995;27;45303;-76
2022/09/21 00:06:09;;;;;;;;;2.00;2.00;;;;;;;;5097677;27;45995;-75
2022/09/21 00:08:34;;;;;;;;;1.00;1.00;;;;;;;;5098084;27;45443;-75
2022/09/21 00:11:00;;;;;;;;;0.67;0.67;;;;;;;;5097909;27;45358;-77
2022/09/21 00:13:27;;;;;;;;;1.00;1.00;;;;;;;;5097919;27;45509;-76
2022/09/21 00:15:52;;;;;;;;;1.00;1.00;;;;;;;;5097766;27;46263;-76
2022/09/21 00:18:17;;;;;;;;;1.00;1.00;;;;;;;;5097604;27;45321;-75
2022/09/21 00:20:42;;;;;;;;;1.00;1.00;;;;;;;;5098025;27;45248;-75
2022/09/21 00:23:08;;;;;;;;;1.00;1.00;;;;;;;;5097789;27;45304;-75
2022/09/21 00:25:33;;;;;;;;;0.67;0.67;;;;;;;;5097822;27;46999;-76
2022/09/21 00:27:59;;;;;;;;;1.00;1.00;;;;;;;;5097366;27;45220;-75
2022/09/21 00:30:24;;;;;;;;;1.00;1.00;;;;;;;;5097690;27;45344;-76
2022/09/21 00:32:52;;;;;;;;;2.00;0.00;;;;;;;;5097600;27;45524;-76
2022/09/21 00:35:17;;;;;;;;;1.00;1.00;;;;;;;;5097541;27;45377;-76
2022/09/21 00:37:42;;;;;;;;;1.00;1.00;;;;;;;;5097488;27;45276;-75
2022/09/21 00:40:07;;;;;;;;;0.67;0.67;;;;;;;;5097523;27;45280;-76
2022/09/21 00:42:33;;;;;;;;;1.00;1.00;;;;;;;;5097069;27;45346;-76
2022/09/21 00:44:59;;;;;;;;;1.00;1.00;;;;;;;;5097630;27;45999;-75
2022/09/21 00:47:24;;;;;;;;;2.00;0.00;;;;;;;;5094612;27;45285;-75
2022/09/21 00:49:53;;;;;;;;;0.33;0.33;;;;;;;;5096456;27;45386;-75
2022/09/21 00:52:19;;;;;;;;;1.00;1.00;;;;;;;;5097387;27;45348;-76
2022/09/21 00:54:48;;;;;;;;;1.00;1.00;;;;;;;;5078923;27;46016;-75
2022/09/21 00:57:14;;;;;;;;;1.67;1.67;;;;;;;;5096734;27;45388;-75
2022/09/21 00:59:41;;;;;;;;;0.67;0.67;;;;;;;;5097251;27;45358;-76
2022/09/21 01:02:07;;;;;;;;;1.00;1.00;;;;;;;;5097343;27;45252;-77
2022/09/21 01:04:33;;;;;;;;;1.00;1.00;;;;;;;;5096819;27;46352;-75
2022/09/21 01:07:00;;;;;;;;;1.00;1.00;;;;;;;;5097024;27;45391;-76
2022/09/21 01:09:26;;;;;;;;;1.00;1.00;;;;;;;;5096801;27;45413;-76
2022/09/21 01:12:06;;;;;;;;;1.00;1.00;;;;;;;;5096488;27;45485;-75
2022/09/21 01:14:48;;;;;;;;;1.33;1.33;;;;;;;;5096575;27;46006;-75
2022/09/21 01:17:28;;;;;;;;;1.00;1.00;;;;;;;;5096741;27;45409;-75
2022/09/21 01:19:54;;;;;;;;;1.00;1.00;;;;;;;;5096854;27;45441;-75
2022/09/21 01:22:19;;;;;;;;;1.00;1.00;;;;;;;;5097087;27;45402;-76
2022/09/21 01:24:44;;;;;;;;;1.00;1.00;;;;;;;;5096622;27;45993;-75
2022/09/21 01:27:21;;;;;;;;;1.00;1.00;;;;;;;;5096566;27;45578;-75
2022/09/21 01:29:54;;;;;;;;;0.00;0.00;;;;;;;;5096788;27;45472;-76
2022/09/21 01:32:27;;;;;;;;;1.00;1.00;;;;;;;;5096800;27;45379;-75
2022/09/21 01:34:53;;;;;;;;;0.33;0.33;;;;;;;;5096573;27;45631;-75
2022/09/21 01:37:22;;;;;;;;;0.00;0.00;;;;;;;;5095691;27;45492;-76
2022/09/21 01:39:51;;;;;;;;;1.00;1.00;;;;;;;;5096270;27;45429;-75
2022/09/21 01:42:19;;;;;;;;;1.00;1.00;;;;;;;;5096151;27;45524;-75
2022/09/21 01:44:44;;;;;;;;;1.00;1.00;;;;;;;;5096586;27;45543;-76
2022/09/21 01:47:13;;;;;;;;;1.00;1.00;;;;;;;;5095947;27;45487;-75
2022/09/21 01:49:42;;;;;;;;;1.33;1.33;;;;;;;;5096744;27;45538;-75
2022/09/21 01:52:13;;;;;;;;;0.67;0.67;;;;;;;;5096563;27;45733;-75
2022/09/21 01:54:41;;;;;;;;;1.00;1.00;;;;;;;;5095994;27;46179;-75
2022/09/21 01:57:27;;;;;;;;;1.00;1.00;;;;;;;;5106533;27;45169;-76
2022/09/21 01:59:55;;;;;;;;;1.00;1.00;;;;;;;;5097918;27;45439;-75
2022/09/21 02:02:24;;;;;;;;;2.00;1.00;;;;;;;;5096267;27;45609;-75
2022/09/21 02:04:49;;;;;;;;;0.33;0.33;;;;;;;;5096138;27;46226;-76
2022/09/21 02:07:15;;;;;;;;;0.33;0.00;;;;;;;;5096033;27;45356;-76
2022/09/21 02:09:41;;;;;;;;;2.00;1.00;;;;;;;;5095979;27;45540;-75
2022/09/21 02:12:06;;;;;;;;;2.00;2.00;;;;;;;;5096208;27;45216;-75
2022/09/21 02:14:33;;;;;;;;;2.00;1.00;;;;;;;;5095932;27;45456;-76
2022/09/21 02:17:06;;;;;;;;;1.33;1.00;;;;;;;;5096234;27;45211;-76
2022/09/21 02:19:39;;;;;;;;;1.00;1.00;;;;;;;;5095928;27;45221;-75
2022/09/21 02:22:07;;;;;;;;;1.67;1.67;;;;;;;;5096028;27;45625;-74
2022/09/21 02:24:32;;;;;;;;;1.67;1.00;;;;;;;;5095103;27;47090;-76
2022/09/21 02:27:03;;;;;;;;;0.00;0.00;;;;;;;;5095822;27;45509;-75
2022/09/21 02:29:33;;;;;;;;;1.00;1.00;;;;;;;;5096084;27;45335;-75
2022/09/21 02:32:13;;;;;;;;;1.00;1.00;;;;;;;;5095895;27;45372;-75
2022/09/21 02:34:51;;;;;;;;;1.00;1.00;;;;;;;;5095643;27;47181;-75
2022/09/21 02:37:35;;;;;;;;;1.00;1.00;;;;;;;;5095509;27;45444;-74
2022/09/21 02:40:21;;;;;;;;;2.00;2.00;;;;;;;;5095563;27;45371;-75
2022/09/21 02:42:49;;;;;;;;;1.00;1.00;;;;;;;;5082861;27;45392;-75
2022/09/21 02:45:30;;;;;;;;;1.00;1.00;;;;;;;;5095629;27;45335;-76
2022/09/21 02:47:58;;;;;;;;;0.00;0.00;;;;;;;;5084810;27;45327;-75
2022/09/21 02:50:44;;;;;;;;;0.00;0.00;;;;;;;;5095705;27;45320;-75
2022/09/21 02:53:10;;;;;;;;;1.00;1.00;;;;;;;;5094719;27;45295;-75
2022/09/21 02:55:36;;;;;;;;;0.00;0.00;;;;;;;;5095400;27;46379;-75
2022/09/21 02:58:04;;;;;;;;;1.67;1.67;;;;;;;;5095634;27;45478;-75
2022/09/21 03:00:29;;;;;;;;;1.00;1.00;;;;;;;;5095539;27;45427;-75
2022/09/21 03:02:54;;;;;;;;;0.00;0.00;;;;;;;;5095649;27;45365;-75
2022/09/21 03:05:20;;;;;;;;;1.00;1.00;;;;;;;;5095334;27;45848;-75
2022/09/21 03:07:45;;;;;;;;;2.00;0.67;;;;;;;;5095110;27;45269;-75
2022/09/21 03:10:10;;;;;;;;;2.33;1.00;;;;;;;;5095556;27;45412;-75
2022/09/21 03:12:36;;;;;;;;;1.00;1.00;;;;;;;;5096347;27;45251;-75
2022/09/21 03:15:01;;;;;;;;;0.33;0.33;;;;;;;;5098817;27;46392;-75
2022/09/21 03:17:26;;;;;;;;;2.00;1.67;;;;;;;;5099093;27;45202;-75
2022/09/21 03:19:53;;;;;;;;;0.33;0.33;;;;;;;;5098741;27;45195;-75
2022/09/21 03:22:20;;;;;;;;;1.00;1.00;;;;;;;;5098730;27;45314;-75
2022/09/21 03:24:45;;;;;;;;;1.33;1.00;;;;;;;;5098549;27;46300;-75
2022/09/21 03:27:11;;;;;;;;;0.00;0.00;;;;;;;;5098656;27;45761;-75
2022/09/21 03:29:36;;;;;;;;;1.00;1.00;;;;;;;;5098726;27;45470;-75
2022/09/21 03:32:01;;;;;;;;;1.67;1.67;;;;;;;;5098499;27;46127;-75
2022/09/21 03:34:27;;;;;;;;;0.67;0.67;;;;;;;;5098017;27;45417;-75
2022/09/21 03:36:52;;;;;;;;;1.00;1.00;;;;;;;;5098106;27;45478;-75
2022/09/21 03:39:17;;;;;;;;;1.00;1.00;;;;;;;;5098724;27;45363;-76
2022/09/21 03:41:44;;;;;;;;;0.33;0.33;;;;;;;;5098673;27;45443;-75
2022/09/21 03:44:09;;;;;;;;;1.00;1.00;;;;;;;;5098399;27;47170;-75
2022/09/21 03:46:34;;;;;;;;;0.00;0.00;;;;;;;;5098429;27;45474;-75
2022/09/21 03:49:01;;;;;;;;;0.67;0.67;;;;;;;;5098203;27;45752;-76
2022/09/21 03:51:26;;;;;;;;;0.33;0.33;;;;;;;;5098305;27;45497;-74
2022/09/21 03:53:51;;;;;;;;;2.00;0.67;;;;;;;;5098238;27;45495;-75
2022/09/21 03:56:17;;;;;;;;;1.00;1.00;;;;;;;;5098564;27;45311;-75
2022/09/21 03:58:42;;;;;;;;;1.00;1.00;;;;;;;;5098353;27;45365;-75
2022/09/21 04:01:08;;;;;;;;;0.67;0.67;;;;;;;;5098139;27;45342;-75
2022/09/21 04:03:33;;;;;;;;;1.00;1.00;;;;;;;;5098122;27;47284;-75
2022/09/21 04:05:58;;;;;;;;;1.00;1.00;;;;;;;;5097439;27;45373;-75
2022/09/21 04:08:25;;;;;;;;;2.00;0.33;;;;;;;;5098108;27;45350;-74
2022/09/21 04:10:50;;;;;;;;;1.00;1.00;;;;;;;;5097995;27;45356;-74
2022/09/21 04:13:15;;;;;;;;;1.67;1.67;;;;;;;;5097785;27;46326;-75
2022/09/21 04:15:40;;;;;;;;;1.00;1.00;;;;;;;;5098136;27;45325;-75
2022/09/21 04:18:07;;;;;;;;;0.00;0.00;;;;;;;;5098217;27;45440;-75
2022/09/21 04:20:32;;;;;;;;;1.00;1.00;;;;;;;;5097709;27;45457;-76
2022/09/21 04:22:58;;;;;;;;;0.00;0.00;;;;;;;;5097863;27;46045;-76
2022/09/21 04:25:23;;;;;;;;;1.00;1.00;;;;;;;;5097820;27;45426;-76
2022/09/21 04:27:49;;;;;;;;;1.00;1.00;;;;;;;;5097782;27;45276;-77
2022/09/21 04:30:15;;;;;;;;;1.00;1.00;;;;;;;;5097512;27;45548;-76
2022/09/21 04:32:40;;;;;;;;;1.00;1.00;;;;;;;;5097357;27;46122;-76
2022/09/21 04:35:06;;;;;;;;;2.00;0.00;;;;;;;;5097560;27;45217;-76
2022/09/21 04:37:31;;;;;;;;;0.00;0.00;;;;;;;;5097565;27;45355;-76
2022/09/21 04:39:56;;;;;;;;;0.33;0.33;;;;;;;;5097549;27;45380;-76
2022/09/21 04:42:22;;;;;;;;;1.00;1.00;;;;;;;;5097355;27;45335;-76
2022/09/21 04:44:47;;;;;;;;;1.00;1.00;;;;;;;;5097625;27;45476;-76
2022/09/21 04:47:12;;;;;;;;;0.33;0.33;;;;;;;;5097468;27;45480;-75
2022/09/21 04:49:37;;;;;;;;;1.00;1.00;;;;;;;;5097026;27;45319;-76
2022/09/21 04:52:03;;;;;;;;;1.00;1.00;;;;;;;;5097227;27;45458;-76
2022/09/21 04:54:28;;;;;;;;;0.67;0.67;;;;;;;;5097108;27;45706;-75
2022/09/21 04:56:53;;;;;;;;;1.00;1.00;;;;;;;;5097685;27;45246;-76
2022/09/21 04:59:18;;;;;;;;;2.33;1.00;;;;;;;;5097221;27;45330;-76
2022/09/21 05:01:43;;;;;;;;;3.00;1.00;;;;;;;;5097004;27;46128;-75
2022/09/21 05:04:09;;;;;;;;;0.00;0.00;;;;;;;;5096957;27;45683;-76
2022/09/21 05:06:34;;;;;;;;;2.00;1.00;;;;;;;;5097249;27;45339;-76
2022/09/21 05:11:43;;;;;;;;;0.00;0.00;;;;;;;;5097127;27;45794;-73
2022/09/21 05:14:09;;;;;;;;;0.00;0.00;;;;;;;;5097003;27;45303;-76
2022/09/21 05:16:34;;;;;;;;;0.00;0.00;;;;;;;;5096813;27;45460;-77
2022/09/21 05:18:59;;;;;;;;;0.67;0.33;;;;;;;;5097006;27;45317;-78
2022/09/21 05:21:24;;;;;;;;;2.00;2.00;;;;;;;;5096569;27;46051;-75
2022/09/21 05:23:50;;;;;;;;;0.67;0.67;;;;;;;;5097036;27;45378;-77
2022/09/21 05:26:15;;;;;;;;;1.00;1.00;;;;;;;;5096772;27;45315;-75
2022/09/21 05:28:40;;;;;;;;;1.00;1.00;;;;;;;;5096798;27;45315;-75
2022/09/21 05:31:15;;;;;;;;;0.00;0.00;;;;;;;;5096688;27;47201;-75
2022/09/21 05:33:43;;;;;;;;;1.00;1.00;;;;;;;;5092606;27;45439;-75
2022/09/21 05:36:26;;;;;;;;;1.00;1.00;;;;;;;;5095959;27;45381;-75
2022/09/21 05:38:52;;;;;;;;;1.00;1.00;;;;;;;;5096630;27;45432;-74
2022/09/21 05:41:17;;;;;;;;;1.00;1.00;;;;;;;;5096832;27;46399;-74
2022/09/21 05:43:42;;;;;;;;;1.00;1.00;;;;;;;;5096102;27;45328;-76
2022/09/21 05:46:15;;;;;;;;;1.67;1.67;;;;;;;;5096457;27;45802;-75
2022/09/21 05:48:43;;;;;;;;;1.00;1.00;;;;;;;;5096497;27;45426;-75
2022/09/21 05:51:14;;;;;;;;;0.00;0.00;;;;;;;;5095855;27;45458;-76
2022/09/21 05:54:09;;;;;;;;;1.00;1.00;;;;;;;;5096352;27;45225;-75
2022/09/21 05:56:40;;;;;;;;;1.00;1.00;;;;;;;;5033178;28;45486;-75
2022/09/21 05:59:08;;;;;;;;;1.33;1.00;;;;;;;;5033248;28;45849;-76
2022/09/21 06:01:45;;;;;;;;;2.00;2.00;;;;;;;;5032735;28;46151;-75
2022/09/21 06:04:13;;;;;;;;;0.67;0.67;;;;;;;;5032950;28;45599;-75
2022/09/21 06:06:38;;;;;;;;;1.00;1.00;;;;;;;;5033115;28;45804;-76
2022/09/21 06:09:04;;;;;;;;;1.00;0.33;;;;;;;;5033174;28;45392;-76
2022/09/21 06:11:29;;;;;;;;;1.00;1.00;;;;;;;;5032867;28;46071;-75
2022/09/21 06:13:54;;;;;;;;;0.67;0.67;;;;;;;;5033045;28;45388;-75
2022/09/21 06:16:19;;;;;;;;;3.00;0.33;;;;;;;;5032703;28;45351;-75
2022/09/21 06:18:45;;;;;;;;;1.33;1.33;;;;;;;;5033234;28;45444;-75
2022/09/21 06:21:10;;;;;;;;;1.00;1.00;;;;;;;;5032622;28;46910;-75
2022/09/21 06:23:35;;;;;;;;;1.00;1.00;;;;;;;;5032961;28;45352;-75
2022/09/21 06:26:01;;;;;;;;;2.00;1.67;;;;;;;;5016298;28;45349;-75
2022/09/21 06:28:26;;;;;;;;;1.33;1.00;;;;;;;;5032784;28;45488;-75
2022/09/21 06:30:52;;;;;;;;;1.67;1.00;;;;;;;;5032469;28;46245;-75
2022/09/21 06:33:20;;;;;;;;;1.33;1.00;;;;;;;;5059847;28;45302;-75
2022/09/21 06:35:55;;;;;;;;;1.00;1.00;;;;;;;;5095236;27;45617;-75
2022/09/21 06:38:20;;;;;;;;;2.00;1.00;;;;;;;;5096137;27;45455;-75
2022/09/21 06:40:46;;;;;;;;;1.00;1.00;;;;;;;;5093139;27;46875;-73
2022/09/21 06:43:11;;;;;;;;;0.00;0.00;;;;;;;;5093652;27;45460;-75
2022/09/21 06:45:36;;;;;;;;;2.00;2.00;;;;;;;;5093702;27;45793;-74
2022/09/21 06:48:01;;;;;;;;;2.00;1.00;;;;;;;;5077003;27;45777;-75
2022/09/21 06:50:27;;;;;;;;;1.00;1.00;;;;;;;;5096829;27;46978;-75
2022/09/21 06:52:52;;;;;;;;;1.00;1.00;;;;;;;;5097259;27;45415;-78
2022/09/21 06:55:17;;;;;;;;;1.00;1.00;;;;;;;;5097412;27;45504;-74
2022/09/21 06:57:42;;;;;;;;;1.67;1.67;;;;;;;;5097422;27;45457;-73
2022/09/21 07:00:09;;;;;;;;;1.00;1.00;;;;;;;;5097756;27;47210;-73
2022/09/21 07:02:35;;;;;;;;;0.00;0.00;;;;;;;;5098503;27;45620;-72
2022/09/21 07:05:00;;;;;;;;;2.00;2.00;;;;;;;;5095983;27;45892;-73
2022/09/21 07:07:29;;;;;;;;;1.00;1.00;;;;;;;;5098706;27;45253;-73
2022/09/21 07:09:54;;;;;;;;;1.00;1.00;;;;;;;;5084824;27;47152;-73
2022/09/21 07:12:19;;;;;;;;;0.00;0.00;;;;;;;;5098715;27;45740;-72
2022/09/21 07:14:45;;;;;;;;;1.33;1.00;;;;;;;;5098021;27;45196;-73
2022/09/21 07:17:10;;;;;;;;;1.00;1.00;;;;;;;;5098764;27;45311;-73
2022/09/21 07:19:35;;;;;;;;;1.67;0.67;;;;;;;;5098373;27;46147;-73
2022/09/21 07:22:00;;;;;;;;;1.00;1.00;;;;;;;;5098305;27;45548;-72
2022/09/21 07:24:25;;;;;;;;;1.00;1.00;;;;;;;;5098627;27;45346;-72
2022/09/21 07:26:51;;;;;;;;;1.67;1.67;;;;;;;;5098582;27;45355;-72
2022/09/21 07:29:17;;;;;;;;;2.00;2.00;;;;;;;;5097532;27;47132;-72
2022/09/21 07:31:43;;;;;;;;;1.00;1.00;;;;;;;;5097774;27;45439;-73
2022/09/21 07:34:10;;;;;;;;;1.00;1.00;;;;;;;;5098474;27;45347;-72
2022/09/21 07:36:35;;;;;;;;;2.00;1.00;;;;;;;;5097952;27;45353;-73
2022/09/21 07:39:01;;;;;;;;;1.00;1.00;;;;;;;;5098070;27;47168;-72
2022/09/21 07:41:27;;;;;;;;;2.33;1.67;;;;;;;;5098129;27;45318;-72
2022/09/21 07:43:52;;;;;;;;;3.00;0.67;;;;;;;;5097615;27;45378;-73
2022/09/21 07:46:17;;;;;;;;;1.00;1.00;;;;;;;;5098472;27;45240;-72
2022/09/21 07:48:43;;;;;;;;;1.00;1.00;;;;;;;;5097790;27;46313;-73
2022/09/21 07:51:10;;;;;;;;;1.67;1.67;;;;;;;;5097788;27;45275;-72
2022/09/21 07:53:36;;;;;;;;;1.00;1.00;;;;;;;;5097879;27;45420;-72
2022/09/21 07:56:03;;;;;;;;;1.00;1.00;;;;;;;;5097826;27;45486;-72
2022/09/21 08:01:12;;;;;;;;;3.00;1.00;;;;;;;;5097535;27;45413;-73
2022/09/21 08:03:37;;;;;;;;;1.00;1.00;;;;;;;;5098216;27;45507;-72
2022/09/21 08:06:03;;;;;;;;;1.00;0.00;;;;;;;;5097444;27;45646;-73
2022/09/21 08:08:28;;;;;;;;;2.67;2.00;;;;;;;;5097443;27;46879;-73
2022/09/21 08:10:53;;;;;;;;;1.00;1.00;;;;;;;;5097723;27;45398;-73
2022/09/21 08:13:18;;;;;;;;;1.00;1.00;;;;;;;;5097657;27;45369;-72
2022/09/21 08:15:43;;;;;;;;;1.00;1.00;;;;;;;;5098095;27;45364;-72
2022/09/21 08:18:09;;;;;;;;;1.33;1.33;;;;;;;;5097427;27;46027;-72
2022/09/21 08:20:34;;;;;;;;;0.00;0.00;;;;;;;;5097334;27;45391;-72
2022/09/21 08:22:59;;;;;;;;;0.00;0.00;;;;;;;;5097760;27;45508;-73
2022/09/21 08:25:26;;;;;;;;;1.33;1.33;;;;;;;;5097408;27;45441;-72
2022/09/21 08:27:51;;;;;;;;;1.00;1.00;;;;;;;;5097028;27;46079;-73
2022/09/21 08:30:16;;;;;;;;;1.67;1.33;;;;;;;;5097197;27;45348;-73
2022/09/21 08:32:41;;;;;;;;;1.00;1.00;;;;;;;;5097457;27;45340;-73
2022/09/21 08:35:07;;;;;;;;;1.67;1.67;;;;;;;;5097291;27;45397;-73
2022/09/21 08:37:34;;;;;;;;;1.33;1.33;;;;;;;;5097079;27;47021;-72
2022/09/21 08:40:01;;;;;;;;;2.00;2.00;;;;;;;;5097181;27;45327;-72
2022/09/21 08:42:34;;;;;;;;;2.00;1.00;;;;;;;;5096846;27;45432;-72
2022/09/21 08:45:04;;;;;;;;;2.00;1.00;;;;;;;;5097399;27;45314;-71
2022/09/21 08:47:46;;;;;;;;;1.00;1.00;;;;;;;;5096984;27;46971;-72
2022/09/21 08:50:32;;;;;;;;;2.33;2.00;;;;;;;;5097009;27;45349;-72
2022/09/21 08:53:00;;;;;;;;;1.67;1.67;;;;;;;;5096642;27;45373;-73
2022/09/21 08:55:26;;;;;;;;;2.00;2.00;;;;;;;;5096335;27;45431;-72
2022/09/21 08:57:51;;;;;;;;;1.33;1.33;;;;;;;;5096636;27;45445;-73
2022/09/21 09:00:17;;;;;;;;;3.00;2.00;;;;;;;;5097212;27;45310;-73
2022/09/21 09:02:49;;;;;;;;;0.00;0.00;;;;;;;;5096912;27;45391;-73
2022/09/21 09:05:22;;;;;;;;;1.00;1.00;;;;;;;;5096807;27;45341;-73
2022/09/21 09:08:06;;;;;;;;;1.00;1.00;;;;;;;;5096494;27;47154;-73
2022/09/21 09:10:36;;;;;;;;;1.00;1.00;;;;;;;;5095207;27;45667;-72
2022/09/21 09:13:07;;;;;;;;;2.67;1.33;;;;;;;;5096830;27;45722;-72
2022/09/21 09:15:38;;;;;;;;;1.67;1.67;;;;;;;;5096895;27;45429;-72
2022/09/21 09:18:08;;;;;;;;;2.00;2.00;;;;;;;;5096406;27;45366;-73
2022/09/21 09:20:37;;;;;;;;;1.67;1.67;;;;;;;;5096354;27;45362;-73
2022/09/21 09:23:02;;;;;;;;;2.00;1.00;;;;;;;;5096577;27;45420;-73
2022/09/21 09:25:31;;;;;;;;;1.67;1.00;;;;;;;;5096303;27;45377;-73
2022/09/21 09:27:58;;;;;;;;;2.00;2.00;;;;;;;;5096281;27;45503;-73
2022/09/21 09:30:24;;;;;;;;;1.00;1.00;;;;;;;;5096362;27;45417;-72
2022/09/21 09:32:56;;;;;;;;;5.67;1.00;;;;;;;;5096577;27;45411;-73
2022/09/21 09:35:31;;;;;;;;;1.00;1.00;;;;;;;;5096267;27;45430;-73
2022/09/21 09:38:01;;;;;;;;;1.00;1.00;;;;;;;;5096134;27;46446;-72
2022/09/21 09:40:43;;;;;;;;;0.33;0.33;;;;;;;;5095774;27;45417;-72
2022/09/21 09:43:15;;;;;;;;;2.00;2.00;;;;;;;;5096521;27;45386;-73
2022/09/21 09:45:58;;;;;;;;;3.00;3.00;;;;;;;;5096303;27;45479;-72
2022/09/21 09:48:32;;;;;;;;;1.33;1.33;;;;;;;;5095874;27;46958;-72
2022/09/21 09:50:57;;;;;;;;;1.00;1.00;;;;;;;;5096082;27;45543;-72
2022/09/21 09:53:25;;;;;;;;;4.00;2.00;;;;;;;;5077525;27;45405;-72
2022/09/21 09:55:52;;;;;;;;;1.00;1.00;;;;;;;;5096023;27;45620;-72
2022/09/21 09:58:20;;;;;;;;;2.33;1.00;;;;;;;;5096111;27;46814;-72
2022/09/21 10:00:46;;;;;;;;;1.00;1.00;;;;;;;;5095892;27;45288;-72
2022/09/21 10:03:24;;;;;;;;;2.00;1.00;;;;;;;;5095966;27;45236;-72
2022/09/21 10:05:50;;;;;;;;;2.00;2.00;;;;;;;;5095465;27;45419;-72
2022/09/21 10:08:33;;;;;;;;;1.00;1.00;;;;;;;;5095306;27;47137;-71
2022/09/21 10:10:59;;;;;;;;;2.00;2.00;;;;;;;;5096129;27;46259;-72
2022/09/21 10:13:29;;;;;;;;;2.00;2.00;;;;;;;;5095872;27;45409;-72
2022/09/21 10:15:59;;;;;;;;;1.33;1.00;;;;;;;;5095934;27;45355;-72
2022/09/21 10:18:45;;;;;;;;;1.67;1.67;;;;;;;;5081928;27;46423;-72
2022/09/21 10:21:29;;;;;;;;;2.00;2.00;;;;;;;;5095770;27;45376;-72
2022/09/21 10:23:58;;;;;;;;;1.67;1.67;;;;;;;;5099023;27;45415;-72
2022/09/21 10:26:29;;;;;;;;;3.33;2.33;;;;;;;;5099258;27;45493;-72
2022/09/21 10:29:15;;;;;;;;;2.33;2.33;;;;;;;;5099347;27;46919;-72
2022/09/21 10:31:52;;;;;;;;;3.67;2.33;;;;;;;;5099053;27;45316;-72
2022/09/21 10:34:17;;;;;;;;;3.00;2.00;;;;;;;;5086569;27;45384;-72
2022/09/21 10:36:50;;;;;;;;;0.00;0.00;;;;;;;;5098839;27;45324;-72
2022/09/21 10:39:21;;;;;;;;;2.00;2.00;;;;;;;;5084814;27;46411;-72
2022/09/21 10:41:50;;;;;;;;;2.00;1.00;;;;;;;;5099273;27;45376;-72
2022/09/21 10:44:17;;;;;;;;;1.00;1.00;;;;;;;;5098332;27;45449;-72
2022/09/21 10:46:43;;;;;;;;;2.00;2.00;;;;;;;;5099225;27;45459;-72
2022/09/21 10:49:18;;;;;;;;;2.00;2.00;;;;;;;;5098382;27;46253;-71
2022/09/21 10:51:44;;;;;;;;;1.00;1.00;;;;;;;;5098400;27;45341;-70
2022/09/21 10:54:10;;;;;;;;;2.33;1.00;;;;;;;;5098898;27;45327;-70
2022/09/21 10:56:35;;;;;;;;;0.67;0.67;;;;;;;;5098595;27;45489;-72
2022/09/21 10:59:21;;;;;;;;;1.67;1.67;;;;;;;;5098389;27;45480;-70
2022/09/21 11:01:48;;;;;;;;;1.00;1.00;;;;;;;;5098760;27;45410;-70
2022/09/21 11:04:18;;;;;;;;;1.00;1.00;;;;;;;;5098483;27;45441;-70
2022/09/21 11:06:45;;;;;;;;;2.00;2.00;;;;;;;;5097971;27;45508;-69
2022/09/21 11:09:13;;;;;;;;;1.00;1.00;;;;;;;;5097775;27;45464;-70
2022/09/21 11:11:57;;;;;;;;;1.00;1.00;;;;;;;;5098398;27;45630;-70
2022/09/21 11:14:29;;;;;;;;;1.67;1.67;;;;;;;;5098364;27;45264;-69
2022/09/21 11:16:54;;;;;;;;;2.00;2.00;;;;;;;;5098465;27;45437;-70
2022/09/21 11:19:19;;;;;;;;;2.67;1.33;;;;;;;;5098010;27;46121;-70
2022/09/21 11:21:54;;;;;;;;;1.67;1.67;;;;;;;;5098176;27;45310;-69
2022/09/21 11:24:19;;;;;;;;;1.00;1.00;;;;;;;;5098507;27;45439;-70
2022/09/21 11:26:50;;;;;;;;;1.00;1.00;;;;;;;;5098419;27;45378;-69
2022/09/21 11:29:39;;;;;;;;;3.67;2.33;;;;;;;;5098195;27;46257;-70
2022/09/21 11:32:15;;;;;;;;;1.00;1.00;;;;;;;;5035058;28;45330;-70
2022/09/21 11:34:59;;;;;;;;;1.00;1.00;;;;;;;;5034194;28;45423;-69
2022/09/21 11:37:30;;;;;;;;;3.00;2.00;;;;;;;;5034026;28;45434;-69
2022/09/21 11:40:14;;;;;;;;;1.00;1.00;;;;;;;;5033930;28;46825;-69
2022/09/21 11:42:42;;;;;;;;;1.00;1.00;;;;;;;;5034855;28;45454;-70
2022/09/21 11:45:23;;;;;;;;;1.00;1.00;;;;;;;;5018279;28;45382;-69
2022/09/21 11:47:56;;;;;;;;;1.00;1.00;;;;;;;;5034723;28;45330;-69
2022/09/21 11:50:30;;;;;;;;;2.33;2.33;;;;;;;;5034289;28;47544;-69
2022/09/21 11:53:06;;;;;;;;;0.00;0.00;;;;;;;;5034421;28;45354;-70
2022/09/21 11:55:37;;;;;;;;;2.33;2.00;;;;;;;;5034545;28;45382;-70
2022/09/21 11:58:06;;;;;;;;;2.00;1.00;;;;;;;;5034304;28;45516;-69
2022/09/21 12:00:51;;;;;;;;;1.00;1.00;;;;;;;;5041529;28;46081;-69
2022/09/21 12:03:17;;;;;;;;;1.00;1.00;;;;;;;;5021487;28;45389;-70
2022/09/21 12:05:42;;;;;;;;;1.00;1.00;;;;;;;;5034626;28;45211;-69
2022/09/21 12:08:07;;;;;;;;;1.00;1.00;;;;;;;;5040506;27;45674;-70
2022/09/21 12:10:36;;;;;;;;;1.00;1.00;;;;;;;;5097382;27;46147;-70
2022/09/21 12:13:20;;;;;;;;;1.00;0.00;;;;;;;;5097357;27;45484;-70
2022/09/21 12:15:54;;;;;;;;;1.00;1.00;;;;;;;;5097616;27;45471;-70
2022/09/21 12:18:28;;;;;;;;;1.33;0.00;;;;;;;;5097062;27;45470;-70
2022/09/21 12:21:03;;;;;;;;;2.00;2.00;;;;;;;;5097195;27;46320;-70
2022/09/21 12:23:40;;;;;;;;;0.67;0.67;;;;;;;;5097493;27;45373;-70
2022/09/21 12:26:06;;;;;;;;;3.00;1.00;;;;;;;;5097394;27;45383;-70
2022/09/21 12:28:31;;;;;;;;;0.00;0.00;;;;;;;;5097296;27;45392;-70
2022/09/21 12:31:04;;;;;;;;;1.25;1.25;;;;;;;;5097607;27;46299;-69
2022/09/21 12:33:32;;;;;;;;;1.00;1.00;;;;;;;;5096901;27;45463;-69
2022/09/21 12:36:10;;;;;;;;;1.33;0.00;;;;;;;;5097426;27;45335;-69
2022/09/21 12:38:54;;;;;;;;;1.00;1.00;;;;;;;;5096969;27;45217;-70
2022/09/21 12:41:25;;;;;;;;;1.67;1.67;;;;;;;;5096925;27;46204;-70
2022/09/21 12:44:09;;;;;;;;;1.00;1.00;;;;;;;;5096830;27;45399;-70
2022/09/21 12:46:42;;;;;;;;;0.33;0.33;;;;;;;;5096092;27;45288;-70
2022/09/21 12:49:13;;;;;;;;;2.00;1.67;;;;;;;;5096912;27;45438;-70
2022/09/21 12:51:41;;;;;;;;;1.67;1.67;;;;;;;;5096875;27;46231;-70
2022/09/21 12:54:13;;;;;;;;;4.00;1.00;;;;;;;;5096848;27;45365;-70
2022/09/21 12:57:12;;;;;;;;;1.00;1.00;;;;;;;;5097038;27;45418;-69
2022/09/21 12:59:49;;;;;;;;;4.33;0.00;;;;;;;;5033581;28;45518;-69
2022/09/21 13:02:34;;;;;;;;;0.00;0.00;;;;;;;;5033289;28;46301;-70
2022/09/21 13:05:17;;;;;;;;;1.00;1.00;;;;;;;;5033909;28;45449;-70
2022/09/21 13:07:51;;;;;;;;;0.33;0.33;;;;;;;;5033740;28;45872;-70
2022/09/21 13:10:18;;;;;;;;;1.00;1.00;;;;;;;;5016953;28;45534;-70
2022/09/21 13:12:45;;;;;;;;;2.00;0.00;;;;;;;;5033157;28;46066;-70
2022/09/21 13:15:16;;;;;;;;;1.00;1.00;;;;;;;;5033341;28;45453;-69
2022/09/21 13:17:41;;;;;;;;;1.67;1.67;;;;;;;;5033066;28;45424;-70
2022/09/21 13:20:20;;;;;;;;;0.33;0.33;;;;;;;;5033511;28;45836;-70
2022/09/21 13:22:47;;;;;;;;;0.33;0.33;;;;;;;;5033543;28;47014;-70
2022/09/21 13:25:23;;;;;;;;;1.00;0.33;;;;;;;;5033366;28;45451;-69
2022/09/21 13:28:08;;;;;;;;;0.00;0.00;;;;;;;;5033419;28;45425;-70
2022/09/21 13:30:36;;;;;;;;;1.67;1.67;;;;;;;;5032190;28;45653;-70
2022/09/21 13:33:03;;;;;;;;;1.00;1.00;;;;;;;;5033158;28;46428;-70
2022/09/21 13:35:43;;;;;;;;;0.00;0.00;;;;;;;;5070958;27;45356;-70
2022/09/21 13:38:21;;;;;;;;;0.67;0.00;;;;;;;;5096632;27;45377;-70
2022/09/21 13:40:56;;;;;;;;;1.00;1.00;;;;;;;;5095869;27;45628;-70
2022/09/21 13:43:22;;;;;;;;;0.00;0.00;;;;;;;;5096211;27;46187;-70
2022/09/21 13:45:50;;;;;;;;;0.00;0.00;;;;;;;;5095396;27;45308;-68
2022/09/21 13:48:23;;;;;;;;;0.00;0.00;;;;;;;;5096570;27;45448;-70
2022/09/21 13:50:49;;;;;;;;;1.00;1.00;;;;;;;;5096091;27;45324;-70
2022/09/21 13:53:17;;;;;;;;;1.00;1.00;;;;;;;;5095938;27;47213;-69
2022/09/21 13:55:50;;;;;;;;;0.00;0.00;;;;;;;;5095656;27;45334;-70
2022/09/21 13:58:31;;;;;;;;;1.00;1.00;;;;;;;;5096221;27;45437;-70
2022/09/21 14:00:57;;;;;;;;;0.00;0.00;;;;;;;;5095438;27;45434;-70
2022/09/21 14:03:31;;;;;;;;;1.00;1.00;;;;;;;;5095995;27;47455;-70
2022/09/21 14:06:02;;;;;;;;;1.00;1.00;;;;;;;;5095614;27;45464;-70
2022/09/21 14:08:32;;;;;;;;;0.33;0.33;;;;;;;;5096074;27;45288;-70
2022/09/21 14:11:00;;;;;;;;;0.00;0.00;;;;;;;;5095595;27;45403;-70
2022/09/21 14:13:36;;;;;;;;;0.00;0.00;;;;;;;;5095381;27;45347;-70
2022/09/21 14:16:20;;;;;;;;;0.67;0.00;;;;;;;;5095216;27;45385;-70
2022/09/21 14:18:45;;;;;;;;;0.67;0.67;;;;;;;;5096101;27;45368;-69
2022/09/21 14:21:17;;;;;;;;;1.00;0.33;;;;;;;;5095561;27;45450;-70
2022/09/21 14:24:09;;;;;;;;;1.00;0.00;;;;;;;;5095653;27;46097;-70
2022/09/21 14:26:34;;;;;;;;;0.00;0.00;;;;;;;;5087852;27;45568;-70
2022/09/21 14:29:06;;;;;;;;;0.00;0.00;;;;;;;;5095303;27;45327;-70
2022/09/21 14:31:35;;;;;;;;;0.00;0.00;;;;;;;;5095872;27;45453;-70
2022/09/21 14:34:02;;;;;;;;;0.00;0.00;;;;;;;;5095395;27;45395;-70
2022/09/21 14:36:40;;;;;;;;;1.00;1.00;;;;;;;;5095532;27;45565;-70
2022/09/21 14:39:13;;;;;;;;;0.00;0.00;;;;;;;;5095692;27;45444;-70
2022/09/21 14:41:40;;;;;;;;;3.00;0.67;;;;;;;;5095829;27;45473;-70
2022/09/21 14:44:07;;;;;;;;;1.00;1.00;;;;;;;;5094874;27;46831;-70
2022/09/21 14:46:39;;;;;;;;;0.00;0.00;;;;;;;;5095472;27;45508;-70
2022/09/21 14:49:23;;;;;;;;;0.00;0.00;;;;;;;;5095496;27;45366;-70
2022/09/21 14:52:07;;;;;;;;;0.33;0.33;;;;;;;;5095367;27;45453;-70
2022/09/21 14:54:51;;;;;;;;;0.00;0.00;;;;;;;;5080975;27;46242;-70
2022/09/21 14:57:36;;;;;;;;;2.00;0.00;;;;;;;;5094760;27;45511;-70
2022/09/21 15:00:01;;;;;;;;;0.00;0.00;;;;;;;;5095069;27;45264;-70
2022/09/21 15:02:28;;;;;;;;;1.33;0.00;;;;;;;;5095127;27;45438;-70